sensor_id;sensor_type;location;lat;lon;timestamp;P1;durP1;ratioP1;P2;durP2;ratioP2
84577;SDS011;74803;44.756;19.218;2024-01-11T00:03:49;77.05;;;52.30;;
84577;SDS011;74803;44.756;19.218;2024-01-11T00:06:15;83.53;;;43.63;;
84577;SDS011;74803;44.756;19.218;2024-01-11T00:11:07;114.43;;;49.38;;
84577;SDS011;74803;44.756;19.218;2024-01-11T00:15:58;72.63;;;48.33;;
84577;SDS011;74803;44.756;19.218;2024-01-11T00:20:50;87.68;;;53.03;;
84577;SDS011;74803;44.756;19.218;2024-01-11T00:23:17;86.25;;;47.08;;
84577;SDS011;74803;44.756;19.218;2024-01-11T00:28:08;34.60;;;18.88;;
84577;SDS011;74803;44.756;19.218;2024-01-11T00:32:59;38.95;;;20.88;;
84577;SDS011;74803;44.756;19.218;2024-01-11T00:37:50;42.63;;;26.73;;
84577;SDS011;74803;44.756;19.218;2024-01-11T00:42:42;29.27;;;21.83;;
84577;SDS011;74803;44.756;19.218;2024-01-11T00:47:33;43.40;;;26.48;;
84577;SDS011;74803;44.756;19.218;2024-01-11T00:52:25;54.08;;;27.52;;
84577;SDS011;74803;44.756;19.218;2024-01-11T00:57:16;31.42;;;21.52;;
84577;SDS011;74803;44.756;19.218;2024-01-11T01:02:07;61.50;;;34.40;;
84577;SDS011;74803;44.756;19.218;2024-01-11T01:06:58;55.75;;;35.55;;
84577;SDS011;74803;44.756;19.218;2024-01-11T01:09:23;54.28;;;32.38;;
84577;SDS011;74803;44.756;19.218;2024-01-11T01:14:14;77.97;;;31.08;;
84577;SDS011;74803;44.756;19.218;2024-01-11T01:19:05;69.32;;;36.53;;
84577;SDS011;74803;44.756;19.218;2024-01-11T01:23:56;69.97;;;34.85;;
84577;SDS011;74803;44.756;19.218;2024-01-11T01:26:22;83.00;;;44.65;;
84577;SDS011;74803;44.756;19.218;2024-01-11T01:31:13;60.25;;;34.45;;
84577;SDS011;74803;44.756;19.218;2024-01-11T01:33:42;52.67;;;35.35;;
84577;SDS011;74803;44.756;19.218;2024-01-11T01:36:09;86.53;;;42.15;;
84577;SDS011;74803;44.756;19.218;2024-01-11T01:38:35;81.47;;;35.53;;
84577;SDS011;74803;44.756;19.218;2024-01-11T01:41:01;72.18;;;37.67;;
84577;SDS011;74803;44.756;19.218;2024-01-11T01:45:53;98.90;;;38.95;;
84577;SDS011;74803;44.756;19.218;2024-01-11T01:48:19;77.25;;;36.53;;
84577;SDS011;74803;44.756;19.218;2024-01-11T01:50:46;60.65;;;34.72;;
84577;SDS011;74803;44.756;19.218;2024-01-11T01:53:16;92.32;;;37.95;;
84577;SDS011;74803;44.756;19.218;2024-01-11T01:55:44;98.60;;;37.75;;
84577;SDS011;74803;44.756;19.218;2024-01-11T02:00:36;66.30;;;34.00;;
84577;SDS011;74803;44.756;19.218;2024-01-11T02:03:01;73.93;;;33.90;;
84577;SDS011;74803;44.756;19.218;2024-01-11T02:05:28;74.88;;;35.00;;
84577;SDS011;74803;44.756;19.218;2024-01-11T02:10:19;70.95;;;30.38;;
84577;SDS011;74803;44.756;19.218;2024-01-11T02:15:10;72.97;;;33.15;;
84577;SDS011;74803;44.756;19.218;2024-01-11T02:20:02;83.50;;;30.30;;
84577;SDS011;74803;44.756;19.218;2024-01-11T02:22:31;82.38;;;34.45;;
84577;SDS011;74803;44.756;19.218;2024-01-11T02:25:01;86.13;;;42.40;;
84577;SDS011;74803;44.756;19.218;2024-01-11T02:27:27;73.57;;;39.95;;
84577;SDS011;74803;44.756;19.218;2024-01-11T02:32:18;78.65;;;33.80;;
84577;SDS011;74803;44.756;19.218;2024-01-11T02:34:45;50.10;;;31.38;;
84577;SDS011;74803;44.756;19.218;2024-01-11T02:39:36;61.78;;;25.95;;
84577;SDS011;74803;44.756;19.218;2024-01-11T02:44:28;38.40;;;24.70;;
84577;SDS011;74803;44.756;19.218;2024-01-11T02:49:19;51.05;;;23.20;;
84577;SDS011;74803;44.756;19.218;2024-01-11T02:54:10;58.60;;;28.95;;
84577;SDS011;74803;44.756;19.218;2024-01-11T02:59:01;69.55;;;27.77;;
84577;SDS011;74803;44.756;19.218;2024-01-11T03:01:27;45.70;;;25.25;;
84577;SDS011;74803;44.756;19.218;2024-01-11T03:03:52;57.85;;;26.45;;
84577;SDS011;74803;44.756;19.218;2024-01-11T03:06:18;67.40;;;31.85;;
84577;SDS011;74803;44.756;19.218;2024-01-11T03:08:49;72.18;;;32.85;;
84577;SDS011;74803;44.756;19.218;2024-01-11T03:11:15;59.22;;;26.10;;
84577;SDS011;74803;44.756;19.218;2024-01-11T03:13:41;63.75;;;30.55;;
84577;SDS011;74803;44.756;19.218;2024-01-11T03:18:33;48.72;;;27.27;;
84577;SDS011;74803;44.756;19.218;2024-01-11T03:23:24;45.47;;;22.77;;
84577;SDS011;74803;44.756;19.218;2024-01-11T03:25:49;59.53;;;28.83;;
84577;SDS011;74803;44.756;19.218;2024-01-11T03:28:15;86.45;;;37.03;;
84577;SDS011;74803;44.756;19.218;2024-01-11T03:33:06;83.20;;;34.00;;
84577;SDS011;74803;44.756;19.218;2024-01-11T03:35:31;71.85;;;35.60;;
84577;SDS011;74803;44.756;19.218;2024-01-11T03:37:57;77.78;;;37.28;;
84577;SDS011;74803;44.756;19.218;2024-01-11T03:42:48;74.28;;;42.15;;
84577;SDS011;74803;44.756;19.218;2024-01-11T03:45:17;157.40;;;82.22;;
84577;SDS011;74803;44.756;19.218;2024-01-11T03:47:44;140.82;;;61.30;;
84577;SDS011;74803;44.756;19.218;2024-01-11T03:52:36;100.32;;;43.75;;
84577;SDS011;74803;44.756;19.218;2024-01-11T03:55:01;92.72;;;37.83;;
84577;SDS011;74803;44.756;19.218;2024-01-11T03:57:27;73.32;;;41.05;;
84577;SDS011;74803;44.756;19.218;2024-01-11T04:02:18;74.15;;;29.25;;
84577;SDS011;74803;44.756;19.218;2024-01-11T04:04:44;76.00;;;38.25;;
84577;SDS011;74803;44.756;19.218;2024-01-11T04:07:10;70.88;;;29.48;;
84577;SDS011;74803;44.756;19.218;2024-01-11T04:09:37;81.72;;;38.65;;
84577;SDS011;74803;44.756;19.218;2024-01-11T04:12:03;85.45;;;36.13;;
84577;SDS011;74803;44.756;19.218;2024-01-11T04:14:30;116.55;;;45.67;;
84577;SDS011;74803;44.756;19.218;2024-01-11T04:16:56;119.93;;;53.35;;
84577;SDS011;74803;44.756;19.218;2024-01-11T04:19:21;83.80;;;40.65;;
84577;SDS011;74803;44.756;19.218;2024-01-11T04:24:12;35.92;;;24.80;;
84577;SDS011;74803;44.756;19.218;2024-01-11T04:29:03;43.58;;;26.30;;
84577;SDS011;74803;44.756;19.218;2024-01-11T04:33:55;53.33;;;31.85;;
84577;SDS011;74803;44.756;19.218;2024-01-11T04:38:46;39.25;;;19.65;;
84577;SDS011;74803;44.756;19.218;2024-01-11T04:43:38;32.15;;;23.45;;
84577;SDS011;74803;44.756;19.218;2024-01-11T04:46:23;35.90;;;22.23;;
84577;SDS011;74803;44.756;19.218;2024-01-11T04:48:49;46.47;;;23.70;;
84577;SDS011;74803;44.756;19.218;2024-01-11T04:51:15;24.52;;;15.55;;
84577;SDS011;74803;44.756;19.218;2024-01-11T04:53:42;43.63;;;25.80;;
84577;SDS011;74803;44.756;19.218;2024-01-11T04:56:09;26.48;;;20.55;;
84577;SDS011;74803;44.756;19.218;2024-01-11T04:58:36;46.13;;;27.75;;
84577;SDS011;74803;44.756;19.218;2024-01-11T05:01:07;55.00;;;28.42;;
84577;SDS011;74803;44.756;19.218;2024-01-11T05:03:37;50.25;;;31.30;;
84577;SDS011;74803;44.756;19.218;2024-01-11T05:08:28;65.00;;;30.95;;
84577;SDS011;74803;44.756;19.218;2024-01-11T05:10:54;77.65;;;33.08;;
84577;SDS011;74803;44.756;19.218;2024-01-11T05:15:47;71.37;;;30.53;;
84577;SDS011;74803;44.756;19.218;2024-01-11T05:18:13;80.00;;;37.90;;
84577;SDS011;74803;44.756;19.218;2024-01-11T05:20:39;60.28;;;34.55;;
84577;SDS011;74803;44.756;19.218;2024-01-11T05:23:04;65.10;;;33.65;;
84577;SDS011;74803;44.756;19.218;2024-01-11T05:27:59;69.70;;;31.55;;
84577;SDS011;74803;44.756;19.218;2024-01-11T05:30:25;55.10;;;30.38;;
84577;SDS011;74803;44.756;19.218;2024-01-11T05:35:16;59.45;;;32.97;;
84577;SDS011;74803;44.756;19.218;2024-01-11T05:40:07;79.75;;;33.72;;
84577;SDS011;74803;44.756;19.218;2024-01-11T05:42:33;83.03;;;46.22;;
84577;SDS011;74803;44.756;19.218;2024-01-11T05:47:24;133.63;;;63.10;;
84577;SDS011;74803;44.756;19.218;2024-01-11T05:52:15;132.77;;;64.45;;
84577;SDS011;74803;44.756;19.218;2024-01-11T05:57:06;110.93;;;51.67;;
84577;SDS011;74803;44.756;19.218;2024-01-11T05:59:33;119.82;;;47.97;;
84577;SDS011;74803;44.756;19.218;2024-01-11T06:01:58;110.00;;;54.97;;
84577;SDS011;74803;44.756;19.218;2024-01-11T06:04:26;108.20;;;48.63;;
84577;SDS011;74803;44.756;19.218;2024-01-11T06:09:17;90.93;;;38.05;;
84577;SDS011;74803;44.756;19.218;2024-01-11T06:14:09;59.67;;;33.08;;
84577;SDS011;74803;44.756;19.218;2024-01-11T06:16:34;76.03;;;38.47;;
84577;SDS011;74803;44.756;19.218;2024-01-11T06:21:25;90.93;;;52.25;;
84577;SDS011;74803;44.756;19.218;2024-01-11T06:26:16;73.68;;;36.22;;
84577;SDS011;74803;44.756;19.218;2024-01-11T06:28:42;111.95;;;54.35;;
84577;SDS011;74803;44.756;19.218;2024-01-11T06:31:09;132.02;;;60.25;;
84577;SDS011;74803;44.756;19.218;2024-01-11T06:33:35;153.45;;;69.80;;
84577;SDS011;74803;44.756;19.218;2024-01-11T06:36:03;115.22;;;60.00;;
84577;SDS011;74803;44.756;19.218;2024-01-11T06:38:31;113.68;;;56.30;;
84577;SDS011;74803;44.756;19.218;2024-01-11T06:43:22;83.20;;;37.60;;
84577;SDS011;74803;44.756;19.218;2024-01-11T06:48:13;63.30;;;31.13;;
84577;SDS011;74803;44.756;19.218;2024-01-11T06:50:39;76.43;;;31.65;;
84577;SDS011;74803;44.756;19.218;2024-01-11T06:53:04;60.47;;;32.83;;
84577;SDS011;74803;44.756;19.218;2024-01-11T06:55:30;76.25;;;33.20;;
84577;SDS011;74803;44.756;19.218;2024-01-11T07:00:22;70.47;;;37.95;;
84577;SDS011;74803;44.756;19.218;2024-01-11T07:02:48;72.35;;;41.28;;
84577;SDS011;74803;44.756;19.218;2024-01-11T07:07:39;116.30;;;41.97;;
84577;SDS011;74803;44.756;19.218;2024-01-11T07:12:31;82.20;;;42.92;;
84577;SDS011;74803;44.756;19.218;2024-01-11T07:14:58;107.78;;;53.72;;
84577;SDS011;74803;44.756;19.218;2024-01-11T07:19:50;98.07;;;48.72;;
84577;SDS011;74803;44.756;19.218;2024-01-11T07:22:16;103.22;;;49.38;;
84577;SDS011;74803;44.756;19.218;2024-01-11T07:27:08;144.00;;;59.75;;
84577;SDS011;74803;44.756;19.218;2024-01-11T07:29:34;133.40;;;69.18;;
84577;SDS011;74803;44.756;19.218;2024-01-11T07:34:26;131.00;;;59.47;;
84577;SDS011;74803;44.756;19.218;2024-01-11T07:39:18;181.25;;;85.03;;
84577;SDS011;74803;44.756;19.218;2024-01-11T07:44:09;189.45;;;91.85;;
84577;SDS011;74803;44.756;19.218;2024-01-11T07:46:35;216.13;;;110.50;;
84577;SDS011;74803;44.756;19.218;2024-01-11T07:49:02;233.15;;;112.63;;
84577;SDS011;74803;44.756;19.218;2024-01-11T07:51:30;250.95;;;121.47;;
84577;SDS011;74803;44.756;19.218;2024-01-11T07:53:56;271.55;;;141.63;;
84577;SDS011;74803;44.756;19.218;2024-01-11T07:56:22;309.88;;;149.90;;
84577;SDS011;74803;44.756;19.218;2024-01-11T07:58:49;278.20;;;137.13;;
84577;SDS011;74803;44.756;19.218;2024-01-11T08:01:15;269.75;;;138.85;;
84577;SDS011;74803;44.756;19.218;2024-01-11T08:03:46;222.38;;;128.10;;
84577;SDS011;74803;44.756;19.218;2024-01-11T08:06:13;165.80;;;84.07;;
84577;SDS011;74803;44.756;19.218;2024-01-11T08:08:39;141.43;;;74.88;;
84577;SDS011;74803;44.756;19.218;2024-01-11T08:11:08;152.35;;;81.05;;
84577;SDS011;74803;44.756;19.218;2024-01-11T08:13:39;121.82;;;74.28;;
84577;SDS011;74803;44.756;19.218;2024-01-11T08:16:04;127.55;;;72.10;;
84577;SDS011;74803;44.756;19.218;2024-01-11T08:18:35;140.32;;;73.70;;
84577;SDS011;74803;44.756;19.218;2024-01-11T08:21:01;142.30;;;74.53;;
84577;SDS011;74803;44.756;19.218;2024-01-11T08:23:31;121.35;;;62.78;;
84577;SDS011;74803;44.756;19.218;2024-01-11T08:25:57;146.20;;;73.40;;
84577;SDS011;74803;44.756;19.218;2024-01-11T08:28:23;137.10;;;70.97;;
84577;SDS011;74803;44.756;19.218;2024-01-11T08:30:48;155.80;;;78.95;;
84577;SDS011;74803;44.756;19.218;2024-01-11T08:33:14;135.63;;;64.65;;
84577;SDS011;74803;44.756;19.218;2024-01-11T08:35:41;149.07;;;69.90;;
84577;SDS011;74803;44.756;19.218;2024-01-11T08:38:06;152.05;;;77.60;;
84577;SDS011;74803;44.756;19.218;2024-01-11T08:40:32;167.75;;;81.05;;
84577;SDS011;74803;44.756;19.218;2024-01-11T08:45:24;141.13;;;67.80;;
84577;SDS011;74803;44.756;19.218;2024-01-11T08:47:50;183.40;;;85.00;;
84577;SDS011;74803;44.756;19.218;2024-01-11T08:50:16;164.75;;;83.60;;
84577;SDS011;74803;44.756;19.218;2024-01-11T08:52:43;169.15;;;86.03;;
84577;SDS011;74803;44.756;19.218;2024-01-11T08:55:09;170.63;;;82.15;;
84577;SDS011;74803;44.756;19.218;2024-01-11T08:57:35;128.38;;;66.63;;
84577;SDS011;74803;44.756;19.218;2024-01-11T09:02:27;133.88;;;64.57;;
84577;SDS011;74803;44.756;19.218;2024-01-11T09:04:52;161.15;;;81.07;;
84577;SDS011;74803;44.756;19.218;2024-01-11T09:07:19;165.18;;;87.63;;
84577;SDS011;74803;44.756;19.218;2024-01-11T09:09:45;149.05;;;81.38;;
84577;SDS011;74803;44.756;19.218;2024-01-11T09:12:11;163.50;;;81.40;;
84577;SDS011;74803;44.756;19.218;2024-01-11T09:14:36;151.27;;;80.65;;
84577;SDS011;74803;44.756;19.218;2024-01-11T09:17:02;136.73;;;77.22;;
84577;SDS011;74803;44.756;19.218;2024-01-11T09:19:31;147.65;;;76.45;;
84577;SDS011;74803;44.756;19.218;2024-01-11T09:22:03;167.07;;;82.75;;
84577;SDS011;74803;44.756;19.218;2024-01-11T09:24:28;193.55;;;99.00;;
84577;SDS011;74803;44.756;19.218;2024-01-11T09:27:02;183.45;;;97.57;;
84577;SDS011;74803;44.756;19.218;2024-01-11T09:29:37;217.40;;;107.70;;
84577;SDS011;74803;44.756;19.218;2024-01-11T09:32:10;194.25;;;112.85;;
84577;SDS011;74803;44.756;19.218;2024-01-11T09:34:37;204.18;;;104.55;;
84577;SDS011;74803;44.756;19.218;2024-01-11T09:37:05;158.30;;;87.60;;
84577;SDS011;74803;44.756;19.218;2024-01-11T09:39:33;150.63;;;87.15;;
84577;SDS011;74803;44.756;19.218;2024-01-11T09:42:08;97.22;;;58.60;;
84577;SDS011;74803;44.756;19.218;2024-01-11T09:44:39;118.15;;;63.78;;
84577;SDS011;74803;44.756;19.218;2024-01-11T09:47:08;119.88;;;69.30;;
84577;SDS011;74803;44.756;19.218;2024-01-11T09:49:37;93.80;;;58.75;;
84577;SDS011;74803;44.756;19.218;2024-01-11T09:52:05;126.70;;;68.72;;
84577;SDS011;74803;44.756;19.218;2024-01-11T09:54:41;101.22;;;57.20;;
84577;SDS011;74803;44.756;19.218;2024-01-11T09:57:06;115.97;;;71.32;;
84577;SDS011;74803;44.756;19.218;2024-01-11T09:59:36;113.65;;;69.25;;
84577;SDS011;74803;44.756;19.218;2024-01-11T10:02:02;129.73;;;75.60;;
84577;SDS011;74803;44.756;19.218;2024-01-11T10:04:29;133.13;;;76.70;;
84577;SDS011;74803;44.756;19.218;2024-01-11T10:06:55;129.02;;;71.57;;
84577;SDS011;74803;44.756;19.218;2024-01-11T10:09:24;138.50;;;80.32;;
84577;SDS011;74803;44.756;19.218;2024-01-11T10:11:51;138.73;;;90.05;;
84577;SDS011;74803;44.756;19.218;2024-01-11T10:14:20;102.75;;;60.25;;
84577;SDS011;74803;44.756;19.218;2024-01-11T10:16:45;136.13;;;81.20;;
84577;SDS011;74803;44.756;19.218;2024-01-11T10:19:12;113.57;;;69.88;;
84577;SDS011;74803;44.756;19.218;2024-01-11T10:21:41;129.40;;;74.78;;
84577;SDS011;74803;44.756;19.218;2024-01-11T10:24:08;135.70;;;81.57;;
84577;SDS011;74803;44.756;19.218;2024-01-11T10:26:42;142.82;;;80.15;;
84577;SDS011;74803;44.756;19.218;2024-01-11T10:29:08;156.43;;;89.97;;
84577;SDS011;74803;44.756;19.218;2024-01-11T10:31:38;143.95;;;84.50;;
84577;SDS011;74803;44.756;19.218;2024-01-11T10:34:12;134.30;;;81.55;;
84577;SDS011;74803;44.756;19.218;2024-01-11T10:36:38;127.28;;;73.40;;
84577;SDS011;74803;44.756;19.218;2024-01-11T10:39:06;119.15;;;67.00;;
84577;SDS011;74803;44.756;19.218;2024-01-11T10:41:40;109.70;;;64.95;;
84577;SDS011;74803;44.756;19.218;2024-01-11T10:44:19;158.45;;;85.80;;
84577;SDS011;74803;44.756;19.218;2024-01-11T10:46:47;157.82;;;86.68;;
84577;SDS011;74803;44.756;19.218;2024-01-11T10:49:16;124.05;;;70.10;;
84577;SDS011;74803;44.756;19.218;2024-01-11T10:51:53;116.00;;;71.38;;
84577;SDS011;74803;44.756;19.218;2024-01-11T10:54:24;118.25;;;70.63;;
84577;SDS011;74803;44.756;19.218;2024-01-11T10:56:51;136.60;;;75.75;;
84577;SDS011;74803;44.756;19.218;2024-01-11T10:59:26;126.55;;;72.68;;
84577;SDS011;74803;44.756;19.218;2024-01-11T11:01:59;99.85;;;54.78;;
84577;SDS011;74803;44.756;19.218;2024-01-11T11:04:31;84.70;;;50.60;;
84577;SDS011;74803;44.756;19.218;2024-01-11T11:07:02;102.80;;;53.38;;
84577;SDS011;74803;44.756;19.218;2024-01-11T11:09:28;86.38;;;49.63;;
84577;SDS011;74803;44.756;19.218;2024-01-11T11:12:05;90.03;;;52.30;;
84577;SDS011;74803;44.756;19.218;2024-01-11T11:14:32;57.87;;;36.57;;
84577;SDS011;74803;44.756;19.218;2024-01-11T11:17:02;62.60;;;38.28;;
84577;SDS011;74803;44.756;19.218;2024-01-11T11:19:29;66.10;;;37.83;;
84577;SDS011;74803;44.756;19.218;2024-01-11T11:21:55;61.30;;;39.20;;
84577;SDS011;74803;44.756;19.218;2024-01-11T11:24:21;57.65;;;39.13;;
84577;SDS011;74803;44.756;19.218;2024-01-11T11:26:47;57.25;;;36.13;;
84577;SDS011;74803;44.756;19.218;2024-01-11T11:29:14;78.40;;;41.63;;
84577;SDS011;74803;44.756;19.218;2024-01-11T11:31:46;68.80;;;40.22;;
84577;SDS011;74803;44.756;19.218;2024-01-11T11:34:13;70.50;;;37.47;;
84577;SDS011;74803;44.756;19.218;2024-01-11T11:36:45;62.05;;;37.70;;
84577;SDS011;74803;44.756;19.218;2024-01-11T11:39:16;73.25;;;43.25;;
84577;SDS011;74803;44.756;19.218;2024-01-11T11:41:45;66.97;;;44.75;;
84577;SDS011;74803;44.756;19.218;2024-01-11T11:44:12;64.38;;;40.85;;
84577;SDS011;74803;44.756;19.218;2024-01-11T11:46:39;72.10;;;45.05;;
84577;SDS011;74803;44.756;19.218;2024-01-11T11:49:05;61.65;;;37.83;;
84577;SDS011;74803;44.756;19.218;2024-01-11T11:53:57;70.68;;;37.58;;
84577;SDS011;74803;44.756;19.218;2024-01-11T11:56:23;62.55;;;37.00;;
84577;SDS011;74803;44.756;19.218;2024-01-11T11:58:49;52.53;;;32.78;;
84577;SDS011;74803;44.756;19.218;2024-01-11T12:01:17;45.50;;;27.25;;
84577;SDS011;74803;44.756;19.218;2024-01-11T12:03:44;46.70;;;29.55;;
84577;SDS011;74803;44.756;19.218;2024-01-11T12:06:19;57.13;;;30.00;;
84577;SDS011;74803;44.756;19.218;2024-01-11T12:08:47;55.08;;;33.88;;
84577;SDS011;74803;44.756;19.218;2024-01-11T12:11:13;61.13;;;36.70;;
84577;SDS011;74803;44.756;19.218;2024-01-11T12:13:40;60.67;;;42.28;;
84577;SDS011;74803;44.756;19.218;2024-01-11T12:16:06;59.70;;;37.03;;
84577;SDS011;74803;44.756;19.218;2024-01-11T12:18:32;83.82;;;50.00;;
84577;SDS011;74803;44.756;19.218;2024-01-11T12:20:57;81.25;;;44.05;;
84577;SDS011;74803;44.756;19.218;2024-01-11T12:23:27;72.70;;;44.08;;
84577;SDS011;74803;44.756;19.218;2024-01-11T12:25:56;71.35;;;43.25;;
84577;SDS011;74803;44.756;19.218;2024-01-11T12:28:26;78.13;;;42.75;;
84577;SDS011;74803;44.756;19.218;2024-01-11T12:30:52;68.68;;;43.22;;
84577;SDS011;74803;44.756;19.218;2024-01-11T12:33:17;69.93;;;38.63;;
84577;SDS011;74803;44.756;19.218;2024-01-11T12:38:10;47.10;;;32.53;;
84577;SDS011;74803;44.756;19.218;2024-01-11T12:40:36;51.25;;;31.00;;
84577;SDS011;74803;44.756;19.218;2024-01-11T12:43:06;54.28;;;31.25;;
84577;SDS011;74803;44.756;19.218;2024-01-11T12:45:33;44.28;;;28.45;;
84577;SDS011;74803;44.756;19.218;2024-01-11T12:48:00;42.42;;;27.83;;
84577;SDS011;74803;44.756;19.218;2024-01-11T12:50:29;37.20;;;25.65;;
84577;SDS011;74803;44.756;19.218;2024-01-11T12:53:15;44.92;;;30.10;;
84577;SDS011;74803;44.756;19.218;2024-01-11T12:55:44;51.90;;;31.92;;
84577;SDS011;74803;44.756;19.218;2024-01-11T12:58:11;51.97;;;31.08;;
84577;SDS011;74803;44.756;19.218;2024-01-11T13:00:38;50.20;;;27.85;;
84577;SDS011;74803;44.756;19.218;2024-01-11T13:03:07;51.33;;;29.02;;
84577;SDS011;74803;44.756;19.218;2024-01-11T13:05:35;58.08;;;35.60;;
84577;SDS011;74803;44.756;19.218;2024-01-11T13:08:07;68.28;;;38.80;;
84577;SDS011;74803;44.756;19.218;2024-01-11T13:10:35;46.60;;;30.48;;
84577;SDS011;74803;44.756;19.218;2024-01-11T13:13:01;57.40;;;36.30;;
84577;SDS011;74803;44.756;19.218;2024-01-11T13:17:57;49.17;;;33.22;;
84577;SDS011;74803;44.756;19.218;2024-01-11T13:20:23;57.53;;;36.83;;
84577;SDS011;74803;44.756;19.218;2024-01-11T13:25:41;53.58;;;32.55;;
84577;SDS011;74803;44.756;19.218;2024-01-11T13:28:08;38.83;;;28.83;;
84577;SDS011;74803;44.756;19.218;2024-01-11T13:33:01;56.03;;;33.17;;
84577;SDS011;74803;44.756;19.218;2024-01-11T13:35:27;54.13;;;36.22;;
84577;SDS011;74803;44.756;19.218;2024-01-11T13:37:53;65.55;;;39.80;;
84577;SDS011;74803;44.756;19.218;2024-01-11T13:40:20;55.58;;;34.97;;
84577;SDS011;74803;44.756;19.218;2024-01-11T13:42:46;60.27;;;38.00;;
84577;SDS011;74803;44.756;19.218;2024-01-11T13:45:14;68.45;;;39.42;;
84577;SDS011;74803;44.756;19.218;2024-01-11T13:47:40;73.10;;;43.27;;
84577;SDS011;74803;44.756;19.218;2024-01-11T13:50:06;89.83;;;51.33;;
84577;SDS011;74803;44.756;19.218;2024-01-11T13:52:32;66.25;;;42.25;;
84577;SDS011;74803;44.756;19.218;2024-01-11T13:54:58;63.60;;;43.67;;
84577;SDS011;74803;44.756;19.218;2024-01-11T13:57:23;64.23;;;43.23;;
84577;SDS011;74803;44.756;19.218;2024-01-11T13:59:49;67.35;;;42.60;;
84577;SDS011;74803;44.756;19.218;2024-01-11T14:04:41;61.35;;;38.53;;
84577;SDS011;74803;44.756;19.218;2024-01-11T14:07:08;58.58;;;39.13;;
84577;SDS011;74803;44.756;19.218;2024-01-11T14:09:34;71.80;;;46.08;;
84577;SDS011;74803;44.756;19.218;2024-01-11T14:12:00;71.40;;;46.13;;
84577;SDS011;74803;44.756;19.218;2024-01-11T14:14:26;73.32;;;41.42;;
84577;SDS011;74803;44.756;19.218;2024-01-11T14:16:51;64.50;;;38.93;;
84577;SDS011;74803;44.756;19.218;2024-01-11T14:19:17;65.63;;;40.28;;
84577;SDS011;74803;44.756;19.218;2024-01-11T14:21:43;64.90;;;42.40;;
84577;SDS011;74803;44.756;19.218;2024-01-11T14:24:08;71.93;;;42.37;;
84577;SDS011;74803;44.756;19.218;2024-01-11T14:26:34;74.07;;;44.07;;
84577;SDS011;74803;44.756;19.218;2024-01-11T14:29:00;67.43;;;41.72;;
84577;SDS011;74803;44.756;19.218;2024-01-11T14:33:53;71.78;;;45.55;;
84577;SDS011;74803;44.756;19.218;2024-01-11T14:36:19;83.45;;;48.05;;
84577;SDS011;74803;44.756;19.218;2024-01-11T14:38:44;80.90;;;46.70;;
84577;SDS011;74803;44.756;19.218;2024-01-11T14:41:10;70.00;;;42.10;;
84577;SDS011;74803;44.756;19.218;2024-01-11T14:43:36;83.03;;;46.60;;
84577;SDS011;74803;44.756;19.218;2024-01-11T14:46:02;70.13;;;49.40;;
84577;SDS011;74803;44.756;19.218;2024-01-11T14:48:55;83.03;;;49.08;;
84577;SDS011;74803;44.756;19.218;2024-01-11T14:51:21;98.90;;;53.40;;
84577;SDS011;74803;44.756;19.218;2024-01-11T14:53:47;95.07;;;49.33;;
84577;SDS011;74803;44.756;19.218;2024-01-11T14:56:12;91.53;;;53.45;;
84577;SDS011;74803;44.756;19.218;2024-01-11T14:58:40;88.78;;;51.53;;
84577;SDS011;74803;44.756;19.218;2024-01-11T15:01:07;100.30;;;55.58;;
84577;SDS011;74803;44.756;19.218;2024-01-11T15:03:33;92.40;;;55.30;;
84577;SDS011;74803;44.756;19.218;2024-01-11T15:05:58;96.60;;;57.47;;
84577;SDS011;74803;44.756;19.218;2024-01-11T15:08:25;99.85;;;57.35;;
84577;SDS011;74803;44.756;19.218;2024-01-11T15:10:51;101.93;;;54.85;;
84577;SDS011;74803;44.756;19.218;2024-01-11T15:13:18;105.00;;;58.72;;
84577;SDS011;74803;44.756;19.218;2024-01-11T15:15:43;91.28;;;48.50;;
84577;SDS011;74803;44.756;19.218;2024-01-11T15:18:09;107.85;;;53.72;;
84577;SDS011;74803;44.756;19.218;2024-01-11T15:20:34;100.07;;;55.30;;
84577;SDS011;74803;44.756;19.218;2024-01-11T15:23:00;113.88;;;55.92;;
84577;SDS011;74803;44.756;19.218;2024-01-11T15:25:26;102.28;;;57.45;;
84577;SDS011;74803;44.756;19.218;2024-01-11T15:27:52;112.28;;;58.47;;
84577;SDS011;74803;44.756;19.218;2024-01-11T15:30:23;108.72;;;54.00;;
84577;SDS011;74803;44.756;19.218;2024-01-11T15:32:48;108.45;;;54.65;;
84577;SDS011;74803;44.756;19.218;2024-01-11T15:35:14;124.45;;;68.35;;
84577;SDS011;74803;44.756;19.218;2024-01-11T15:37:40;140.30;;;71.80;;
84577;SDS011;74803;44.756;19.218;2024-01-11T15:40:05;143.18;;;73.63;;
84577;SDS011;74803;44.756;19.218;2024-01-11T15:42:33;167.98;;;90.20;;
84577;SDS011;74803;44.756;19.218;2024-01-11T15:45:01;166.90;;;87.38;;
84577;SDS011;74803;44.756;19.218;2024-01-11T15:47:32;162.35;;;87.32;;
84577;SDS011;74803;44.756;19.218;2024-01-11T15:49:57;173.82;;;84.68;;
84577;SDS011;74803;44.756;19.218;2024-01-11T15:52:26;155.50;;;80.38;;
84577;SDS011;74803;44.756;19.218;2024-01-11T15:54:51;157.45;;;77.85;;
84577;SDS011;74803;44.756;19.218;2024-01-11T15:57:17;115.60;;;54.60;;
84577;SDS011;74803;44.756;19.218;2024-01-11T15:59:42;129.68;;;60.00;;
84577;SDS011;74803;44.756;19.218;2024-01-11T16:02:08;123.00;;;59.75;;
84577;SDS011;74803;44.756;19.218;2024-01-11T16:04:37;118.90;;;62.58;;
84577;SDS011;74803;44.756;19.218;2024-01-11T16:07:04;200.45;;;93.63;;
84577;SDS011;74803;44.756;19.218;2024-01-11T16:09:30;230.07;;;109.05;;
84577;SDS011;74803;44.756;19.218;2024-01-11T16:11:55;248.55;;;121.45;;
84577;SDS011;74803;44.756;19.218;2024-01-11T16:14:22;224.43;;;115.88;;
84577;SDS011;74803;44.756;19.218;2024-01-11T16:16:48;232.20;;;112.10;;
84577;SDS011;74803;44.756;19.218;2024-01-11T16:19:13;218.65;;;110.10;;
84577;SDS011;74803;44.756;19.218;2024-01-11T16:21:39;252.73;;;134.73;;
84577;SDS011;74803;44.756;19.218;2024-01-11T16:24:04;245.95;;;136.85;;
84577;SDS011;74803;44.756;19.218;2024-01-11T16:26:31;302.63;;;145.93;;
84577;SDS011;74803;44.756;19.218;2024-01-11T16:28:57;304.48;;;150.70;;
84577;SDS011;74803;44.756;19.218;2024-01-11T16:33:48;227.30;;;123.28;;
84577;SDS011;74803;44.756;19.218;2024-01-11T16:36:14;276.25;;;140.18;;
84577;SDS011;74803;44.756;19.218;2024-01-11T16:38:42;263.00;;;135.27;;
84577;SDS011;74803;44.756;19.218;2024-01-11T16:41:08;244.02;;;125.65;;
84577;SDS011;74803;44.756;19.218;2024-01-11T16:43:34;193.38;;;105.47;;
84577;SDS011;74803;44.756;19.218;2024-01-11T16:48:26;162.73;;;83.75;;
84577;SDS011;74803;44.756;19.218;2024-01-11T16:50:52;179.45;;;92.03;;
84577;SDS011;74803;44.756;19.218;2024-01-11T16:53:18;168.10;;;89.38;;
84577;SDS011;74803;44.756;19.218;2024-01-11T16:55:45;213.90;;;100.20;;
84577;SDS011;74803;44.756;19.218;2024-01-11T16:58:13;198.50;;;102.05;;